createdAt,value
2022-08-17T00:33:15.478Z,19.52
2022-08-17T00:35:34.076Z,19.44
2022-08-17T00:38:00.709Z,19.39
2022-08-17T00:40:27.206Z,19.36
2022-08-17T00:43:14.973Z,19.36
2022-08-17T00:45:42.474Z,19.36
2022-08-17T00:48:26.158Z,19.38
2022-08-17T00:51:01.574Z,19.33
2022-08-17T00:53:30.883Z,19.29
2022-08-17T00:56:01.783Z,19.34
2022-08-17T00:58:35.800Z,19.33
2022-08-17T01:01:04.552Z,19.31
2022-08-17T01:03:31.466Z,19.41
2022-08-17T01:06:01.470Z,19.39
2022-08-17T01:08:30.583Z,19.36
2022-08-17T01:11:02.218Z,19.36
2022-08-17T01:13:40.364Z,19.35
2022-08-17T01:16:16.046Z,19.34
2022-08-17T01:18:45.396Z,19.20
2022-08-17T01:21:22.345Z,19.28
2022-08-17T01:23:49.063Z,19.33
2022-08-17T01:26:16.263Z,19.20
2022-08-17T01:28:54.222Z,19.36
2022-08-17T01:31:24.186Z,19.43
2022-08-17T01:33:50.974Z,19.35
2022-08-17T01:36:18.124Z,19.37
2022-08-17T01:38:44.748Z,19.26
2022-08-17T01:41:15.532Z,19.19
2022-08-17T01:43:47.816Z,19.18
2022-08-17T01:46:18.672Z,19.16
2022-08-17T01:48:47.505Z,19.19
2022-08-17T01:51:15.804Z,19.34
2022-08-17T01:53:47.563Z,19.28
2022-08-17T01:56:18.135Z,19.27
2022-08-17T01:58:45.674Z,19.15
2022-08-17T02:01:14.758Z,19.17
2022-08-17T02:03:42.419Z,19.16
2022-08-17T02:06:27.484Z,19.16
2022-08-17T02:09:01.598Z,19.12
2022-08-17T02:11:28.882Z,19.18
2022-08-17T02:14:01.024Z,19.23
2022-08-17T02:16:29.599Z,19.13
2022-08-17T02:19:08.044Z,19.24
2022-08-17T02:21:36.404Z,19.09
2022-08-17T02:24:04.474Z,19.22
2022-08-17T02:26:31.177Z,19.25
2022-08-17T02:28:57.735Z,19.18
2022-08-17T02:31:24.307Z,19.12
2022-08-17T02:33:56.575Z,19.06
2022-08-17T02:36:27.570Z,19.00
2022-08-17T02:38:54.173Z,19.15
2022-08-17T02:41:20.720Z,19.05
2022-08-17T02:43:47.276Z,19.01
2022-08-17T02:46:13.822Z,19.04
2022-08-17T02:48:40.335Z,19.06
2022-08-17T02:51:06.994Z,18.98
2022-08-17T02:53:35.815Z,19.04
2022-08-17T02:56:03.838Z,19.14
2022-08-17T02:58:35.350Z,19.09
2022-08-17T03:01:06.340Z,19.06
2022-08-17T03:03:33.992Z,18.96
2022-08-17T03:06:01.238Z,18.90
2022-08-17T03:08:28.214Z,19.00
2022-08-17T03:10:54.723Z,18.96
2022-08-17T03:13:21.677Z,18.96
2022-08-17T03:15:49.255Z,18.93
2022-08-17T03:18:24.860Z,18.90
2022-08-17T03:20:58.523Z,18.93
2022-08-17T03:23:26.677Z,19.02
2022-08-17T03:25:55.587Z,19.09
2022-08-17T03:28:23.289Z,19.05
2022-08-17T03:30:51.207Z,18.88
2022-08-17T03:33:19.180Z,18.99
2022-08-17T03:35:46.126Z,18.89
2022-08-17T03:38:15.367Z,18.80
2022-08-17T03:40:58.504Z,18.79
2022-08-17T03:43:29.745Z,18.98
2022-08-17T03:46:28.452Z,18.93
2022-08-17T03:49:24.051Z,18.90
2022-08-17T03:52:09.766Z,18.85
2022-08-17T03:54:55.193Z,18.82
2022-08-17T03:57:21.783Z,18.87
2022-08-17T03:59:48.715Z,18.90
2022-08-17T04:02:34.531Z,18.79
2022-08-17T04:05:01.435Z,18.74
2022-08-17T04:07:30.375Z,18.79
2022-08-17T04:09:58.062Z,18.91
2022-08-17T04:12:25.967Z,18.79
2022-08-17T04:14:54.744Z,18.81
2022-08-17T04:17:24.408Z,18.82
2022-08-17T04:19:51.545Z,18.75
2022-08-17T04:22:30.996Z,18.82
2022-08-17T04:25:08.131Z,18.81
2022-08-17T04:27:34.849Z,18.87
2022-08-17T04:30:02.097Z,18.84
2022-08-17T04:33:05.406Z,18.73
2022-08-17T04:35:24.676Z,18.83
2022-08-17T04:37:51.750Z,18.81
2022-08-17T04:40:38.638Z,18.75
2022-08-17T04:43:11.819Z,18.85
2022-08-17T04:45:55.507Z,18.85
2022-08-17T04:48:36.296Z,18.83
2022-08-17T04:51:38.264Z,18.80
2022-08-17T04:54:21.899Z,18.72
2022-08-17T04:56:48.552Z,18.71
2022-08-17T04:59:21.159Z,18.69
2022-08-17T05:01:50.628Z,18.77
2022-08-17T05:04:33.845Z,18.79
2022-08-17T05:07:02.121Z,18.83
2022-08-17T05:09:29.084Z,18.86
2022-08-17T05:11:56.176Z,18.70
2022-08-17T05:14:33.025Z,18.64
2022-08-17T05:17:01.116Z,18.61
2022-08-17T05:19:28.623Z,18.63
2022-08-17T05:21:55.213Z,18.69
2022-08-17T05:24:42.543Z,18.74
2022-08-17T05:27:08.295Z,18.77
2022-08-17T05:29:35.407Z,18.83
2022-08-17T05:32:39.173Z,18.91
2022-08-17T05:35:00.396Z,18.82
2022-08-17T05:37:27.547Z,18.92
2022-08-17T05:39:54.394Z,18.80
2022-08-17T05:42:21.722Z,18.77
2022-08-17T05:44:48.549Z,18.84
2022-08-17T05:47:15.135Z,18.74
2022-08-17T05:49:41.673Z,18.77
2022-08-17T05:52:20.991Z,18.68
2022-08-17T05:54:53.146Z,18.70
2022-08-17T05:57:39.488Z,18.79
2022-08-17T06:00:20.303Z,18.69
2022-08-17T06:03:00.458Z,18.61
2022-08-17T06:05:26.955Z,18.83
2022-08-17T06:08:09.934Z,18.66
2022-08-17T06:10:57.373Z,18.48
2022-08-17T06:14:01.547Z,18.53
2022-08-17T06:16:35.476Z,18.58
2022-08-17T06:19:45.228Z,18.63
2022-08-17T06:22:16.712Z,18.70
2022-08-17T06:24:43.258Z,18.54
2022-08-17T06:27:22.459Z,18.52
2022-08-17T06:30:00.563Z,18.41
2022-08-17T06:32:27.404Z,18.41
2022-08-17T06:34:54.303Z,18.55
2022-08-17T06:37:42.288Z,18.42
2022-08-17T06:40:29.991Z,18.40
2022-08-17T06:43:05.984Z,18.64
2022-08-17T06:45:49.385Z,18.40
2022-08-17T06:48:24.788Z,18.45
2022-08-17T06:50:55.949Z,18.37
2022-08-17T06:53:41.138Z,18.38
2022-08-17T06:56:13.608Z,18.38
2022-08-17T06:58:43.365Z,18.38
2022-08-17T07:01:15.063Z,18.36
2022-08-17T07:03:46.342Z,18.58
2022-08-17T07:06:18.374Z,18.59
2022-08-17T07:08:53.198Z,18.67
2022-08-17T07:11:29.111Z,18.57
2022-08-17T07:14:04.806Z,18.73
2022-08-17T07:16:39.657Z,18.70
2022-08-17T07:19:07.450Z,18.79
2022-08-17T07:22:01.839Z,18.88
2022-08-17T07:24:43.323Z,19.58
2022-08-17T07:27:18.190Z,19.78
2022-08-17T07:29:58.389Z,19.98
2022-08-17T07:32:32.269Z,20.16
2022-08-17T07:35:11.670Z,20.27
2022-08-17T07:37:50.926Z,20.24
2022-08-17T07:40:27.136Z,20.23
2022-08-17T07:43:22.285Z,20.27
2022-08-17T07:46:23.794Z,20.29
2022-08-17T07:48:55.266Z,20.16
2022-08-17T07:51:25.180Z,20.38
2022-08-17T07:53:53.763Z,20.40
2022-08-17T07:56:55.474Z,20.46
2022-08-17T07:59:33.462Z,20.41
2022-08-17T08:02:05.228Z,20.33
2022-08-17T08:07:27.223Z,20.43
2022-08-17T08:10:04.925Z,20.43
2022-08-17T08:12:37.444Z,20.22
2022-08-17T08:15:10.161Z,20.20
2022-08-17T08:17:52.820Z,20.13
2022-08-17T08:20:52.028Z,20.46
2022-08-17T08:23:57.444Z,20.55
2022-08-17T08:26:43.372Z,20.72
2022-08-17T08:29:33.018Z,20.93
2022-08-17T08:32:20.496Z,20.87
2022-08-17T08:35:08.537Z,20.87
2022-08-17T08:37:54.001Z,21.02
2022-08-17T08:40:48.594Z,20.92
2022-08-17T08:43:38.799Z,20.87
2022-08-17T08:46:20.730Z,20.92
2022-08-17T08:49:12.115Z,21.04
2022-08-17T08:51:48.254Z,21.03
2022-08-17T08:54:26.681Z,21.37
2022-08-17T08:57:23.166Z,21.43
2022-08-17T09:00:00.295Z,21.36
2022-08-17T09:02:54.893Z,21.45
2022-08-17T09:05:49.407Z,21.44
2022-08-17T09:08:50.081Z,21.38
2022-08-17T09:11:36.525Z,21.48
2022-08-17T09:14:32.751Z,21.05
2022-08-17T09:17:29.112Z,21.00
2022-08-17T09:20:04.242Z,21.14
2022-08-17T09:22:39.198Z,21.30
2022-08-17T09:25:28.576Z,21.21
2022-08-17T09:28:05.822Z,21.50
2022-08-17T09:30:41.128Z,21.69
2022-08-17T09:33:11.590Z,21.74
2022-08-17T09:35:52.646Z,22.01
2022-08-17T09:38:38.074Z,22.14
2022-08-17T09:41:13.675Z,22.21
2022-08-17T09:44:09.608Z,22.48
2022-08-17T09:47:07.275Z,22.33
2022-08-17T09:49:42.860Z,22.29
2022-08-17T09:52:23.273Z,22.20
2022-08-17T09:54:52.362Z,22.11
2022-08-17T09:57:48.468Z,22.20
2022-08-17T10:00:27.657Z,22.15
2022-08-17T10:02:57.277Z,22.32
2022-08-17T10:05:41.328Z,22.30
2022-08-17T10:08:46.043Z,22.05
2022-08-17T10:11:56.160Z,21.80
2022-08-17T10:14:44.416Z,22.22
2022-08-17T10:17:33.310Z,21.91
2022-08-17T10:20:33.967Z,22.01
2022-08-17T10:23:26.894Z,22.21
2022-08-17T10:26:14.236Z,21.93
2022-08-17T10:28:50.462Z,22.00
2022-08-17T10:31:40.249Z,21.88
2022-08-17T10:34:27.010Z,21.72
2022-08-17T10:37:30.462Z,21.70
2022-08-17T10:40:15.158Z,21.77
2022-08-17T10:42:54.996Z,21.72
2022-08-17T10:45:29.483Z,21.69
2022-08-17T10:48:21.157Z,21.70
2022-08-17T10:50:49.713Z,21.83
2022-08-17T10:53:49.597Z,21.67
2022-08-17T10:56:18.720Z,22.14
2022-08-17T10:58:49.613Z,22.20
2022-08-17T11:01:17.490Z,22.17
2022-08-17T11:03:54.837Z,22.32
2022-08-17T11:06:35.098Z,22.68
2022-08-17T11:09:35.000Z,22.46
2022-08-17T11:12:37.694Z,22.44
2022-08-17T11:15:19.670Z,22.14
2022-08-17T11:18:32.756Z,22.47
2022-08-17T11:21:02.145Z,22.67
2022-08-17T11:23:51.258Z,22.57
2022-08-17T11:26:26.249Z,22.68
2022-08-17T11:28:59.555Z,22.52
2022-08-17T11:31:38.836Z,22.08
2022-08-17T11:34:06.340Z,22.02
2022-08-17T11:37:01.907Z,22.19
2022-08-17T11:39:31.225Z,22.11
2022-08-17T11:42:05.568Z,22.18
2022-08-17T11:44:52.512Z,22.34
2022-08-17T11:48:29.231Z,22.33
2022-08-17T11:51:28.687Z,22.71
2022-08-17T11:54:30.559Z,23.09
2022-08-17T11:56:51.797Z,23.26
2022-08-17T11:59:33.323Z,23.49
2022-08-17T12:02:31.525Z,23.46
2022-08-17T12:05:02.744Z,23.41
2022-08-17T12:07:33.066Z,23.15
2022-08-17T12:10:01.075Z,22.90
2022-08-17T12:12:33.413Z,22.87
2022-08-17T12:15:16.697Z,22.58
2022-08-17T12:17:53.039Z,22.72
2022-08-17T12:20:21.427Z,22.62
2022-08-17T12:22:54.895Z,22.60
2022-08-17T12:25:33.082Z,22.25
2022-08-17T12:28:06.570Z,22.42
2022-08-17T12:30:35.429Z,22.36
2022-08-17T12:33:02.506Z,22.39
2022-08-17T12:35:35.259Z,22.34
2022-08-17T12:38:04.471Z,22.38
2022-08-17T12:40:33.384Z,22.34
2022-08-17T12:43:06.778Z,22.11
2022-08-17T12:45:34.942Z,21.91
2022-08-17T12:48:11.107Z,22.13
2022-08-17T12:50:40.387Z,22.26
2022-08-17T12:53:16.415Z,21.89
2022-08-17T12:55:44.417Z,21.63
2022-08-17T12:58:15.131Z,21.73
2022-08-17T13:00:49.806Z,22.02
2022-08-17T13:03:20.155Z,21.94
2022-08-17T13:05:52.657Z,22.00
2022-08-17T13:08:41.227Z,22.19
2022-08-17T13:11:18.291Z,22.56
2022-08-17T13:13:50.795Z,22.73
2022-08-17T13:16:30.717Z,22.80
2022-08-17T13:19:09.124Z,22.76
2022-08-17T13:21:38.044Z,22.94
2022-08-17T13:24:10.604Z,22.92
2022-08-17T13:26:44.360Z,22.75
2022-08-17T13:29:26.955Z,22.87
2022-08-17T13:32:13.224Z,22.74
2022-08-17T13:35:15.445Z,22.68
2022-08-17T13:37:59.295Z,22.92
2022-08-17T13:40:53.179Z,23.00
2022-08-17T13:43:45.034Z,23.02
2022-08-17T13:46:25.165Z,23.13
2022-08-17T13:48:59.147Z,23.22
2022-08-17T13:51:29.729Z,23.51
2022-08-17T13:53:59.483Z,23.78
2022-08-17T13:56:46.739Z,23.81
2022-08-17T13:59:52.577Z,24.12
2022-08-17T14:02:13.474Z,23.93
2022-08-17T14:04:42.919Z,23.79
2022-08-17T14:07:11.443Z,23.91
2022-08-17T14:09:41.581Z,24.03
2022-08-17T14:12:16.243Z,23.92
2022-08-17T14:14:44.695Z,24.16
2022-08-17T14:17:12.308Z,24.19
2022-08-17T14:19:39.261Z,24.31
2022-08-17T14:22:11.583Z,24.25
2022-08-17T14:24:44.640Z,23.89
2022-08-17T14:27:12.028Z,24.21
2022-08-17T14:29:41.070Z,24.17
2022-08-17T14:32:28.967Z,24.01
2022-08-17T14:34:57.615Z,23.75
2022-08-17T14:37:26.346Z,23.77
2022-08-17T14:40:02.128Z,23.89
2022-08-17T14:42:32.631Z,24.20
2022-08-17T14:45:00.008Z,24.24
2022-08-17T14:47:29.617Z,23.71
2022-08-17T14:49:56.121Z,23.57
2022-08-17T14:52:22.857Z,23.42
2022-08-17T14:54:51.382Z,23.39
2022-08-17T14:57:34.168Z,23.40
2022-08-17T15:00:02.092Z,23.14
2022-08-17T15:02:30.691Z,22.92
2022-08-17T15:05:05.726Z,22.88
2022-08-17T15:07:32.365Z,23.06
2022-08-17T15:10:02.700Z,22.76
2022-08-17T15:12:34.111Z,22.53
2022-08-17T15:15:04.839Z,22.76
2022-08-17T15:17:43.971Z,22.88
2022-08-17T15:20:21.075Z,22.83
2022-08-17T15:22:55.402Z,22.69
2022-08-17T15:25:23.177Z,22.58
2022-08-17T15:27:50.141Z,22.46
2022-08-17T15:30:17.408Z,22.38
2022-08-17T15:32:50.953Z,22.45
2022-08-17T15:35:22.078Z,22.23
2022-08-17T15:38:06.295Z,22.37
2022-08-17T15:40:39.972Z,22.24
2022-08-17T15:43:13.879Z,22.22
2022-08-17T15:45:40.550Z,22.28
2022-08-17T15:48:07.982Z,22.45
2022-08-17T15:50:34.938Z,22.47
2022-08-17T15:53:02.156Z,22.39
2022-08-17T15:55:30.586Z,22.08
2022-08-17T15:57:57.171Z,22.15
2022-08-17T16:00:24.201Z,22.21
2022-08-17T16:03:45.399Z,22.41
2022-08-17T16:05:37.867Z,22.28
2022-08-17T16:08:07.442Z,22.42
2022-08-17T16:10:34.739Z,22.24
2022-08-17T16:13:03.111Z,22.09
2022-08-17T16:15:31.254Z,22.08
2022-08-17T16:17:57.805Z,22.21
2022-08-17T16:20:24.327Z,22.24
2022-08-17T16:22:51.312Z,22.15
2022-08-17T16:25:22.158Z,22.26
2022-08-17T16:27:53.392Z,22.42
2022-08-17T16:30:22.766Z,22.23
2022-08-17T16:32:51.707Z,22.27
2022-08-17T16:35:20.497Z,21.97
2022-08-17T16:37:47.681Z,22.10
2022-08-17T16:40:16.146Z,22.23
2022-08-17T16:42:43.367Z,22.02
2022-08-17T16:45:13.701Z,22.26
2022-08-17T16:47:41.869Z,22.30
2022-08-17T16:50:11.774Z,22.26
2022-08-17T16:52:39.363Z,22.17
2022-08-17T16:55:07.892Z,22.15
2022-08-17T16:57:35.810Z,22.22
2022-08-17T17:00:02.476Z,22.19
2022-08-17T17:02:37.943Z,22.23
2022-08-17T17:05:17.587Z,22.48
2022-08-17T17:08:03.763Z,22.86
2022-08-17T17:10:57.918Z,23.14
2022-08-17T17:13:30.600Z,23.56
2022-08-17T17:16:26.298Z,23.64
2022-08-17T17:19:08.092Z,23.60
2022-08-17T17:21:43.370Z,23.46
2022-08-17T17:24:26.131Z,23.49
2022-08-17T17:27:15.244Z,23.53
2022-08-17T17:29:58.179Z,23.62
2022-08-17T17:32:42.724Z,23.40
2022-08-17T17:35:16.759Z,23.23
2022-08-17T17:37:46.008Z,23.05
2022-08-17T17:40:20.540Z,23.03
2022-08-17T17:42:49.008Z,23.08
2022-08-17T17:45:25.995Z,22.98
2022-08-17T17:47:53.261Z,22.74
2022-08-17T17:50:23.927Z,22.97
2022-08-17T17:52:59.270Z,22.95
2022-08-17T17:55:37.702Z,22.69
2022-08-17T17:58:19.670Z,22.67
2022-08-17T18:01:13.342Z,22.60
2022-08-17T18:04:03.377Z,22.51
2022-08-17T18:07:22.957Z,22.49
2022-08-17T18:10:01.398Z,22.28
2022-08-17T18:12:43.181Z,22.19
2022-08-17T18:15:25.161Z,22.29
2022-08-17T18:18:17.191Z,22.18
2022-08-17T18:20:57.603Z,22.00
2022-08-17T18:23:28.165Z,22.04
2022-08-17T18:25:56.151Z,21.90
2022-08-17T18:28:27.779Z,21.85
2022-08-17T18:31:32.785Z,21.90
2022-08-17T18:34:43.716Z,21.81
2022-08-17T18:37:09.438Z,21.73
2022-08-17T18:39:38.293Z,21.61
2022-08-17T18:42:22.306Z,21.61
2022-08-17T18:44:52.991Z,21.25
2022-08-17T18:47:27.991Z,21.31
2022-08-17T18:50:15.307Z,21.34
2022-08-17T18:52:41.960Z,21.22
2022-08-17T18:55:12.330Z,21.19
2022-08-17T18:57:45.637Z,21.17
2022-08-17T19:00:36.156Z,21.20
2022-08-17T19:03:24.965Z,21.20
2022-08-17T19:05:57.428Z,21.10
2022-08-17T19:08:30.094Z,21.07
2022-08-17T19:11:02.617Z,21.11
2022-08-17T19:13:37.426Z,21.09
2022-08-17T19:16:27.398Z,20.92
2022-08-17T19:18:59.562Z,20.89
2022-08-17T19:21:40.409Z,20.92
2022-08-17T19:24:19.456Z,20.90
2022-08-17T19:26:58.921Z,20.87
2022-08-17T19:29:36.559Z,20.80
2022-08-17T19:32:06.544Z,20.71
2022-08-17T19:34:36.386Z,20.74
2022-08-17T19:37:07.558Z,20.62
2022-08-17T19:39:55.142Z,20.62
2022-08-17T19:42:31.130Z,20.59
2022-08-17T19:45:11.778Z,20.56
2022-08-17T19:48:00.524Z,20.65
2022-08-17T19:50:39.041Z,20.58
2022-08-17T19:53:19.210Z,20.49
2022-08-17T19:56:08.332Z,20.57
2022-08-17T19:58:53.698Z,20.58
2022-08-17T20:01:34.420Z,20.52
2022-08-17T20:04:18.782Z,20.50
2022-08-17T20:06:49.388Z,20.57
2022-08-17T20:09:21.446Z,20.51
2022-08-17T20:11:56.927Z,20.46
2022-08-17T20:14:58.442Z,20.31
2022-08-17T20:17:30.262Z,20.41
2022-08-17T20:20:02.548Z,20.46
2022-08-17T20:22:49.581Z,20.47
2022-08-17T20:25:30.566Z,20.39
2022-08-17T20:28:06.207Z,20.28
2022-08-17T20:30:41.042Z,20.21
2022-08-17T20:33:24.478Z,20.34
2022-08-17T20:36:02.453Z,20.26
2022-08-17T20:38:44.444Z,20.20
2022-08-17T20:41:23.034Z,20.17
2022-08-17T20:43:55.300Z,20.13
2022-08-17T20:46:37.415Z,20.04
2022-08-17T20:49:27.105Z,20.06
2022-08-17T20:52:02.548Z,20.05
2022-08-17T20:54:48.023Z,20.05
2022-08-17T20:57:32.990Z,20.13
2022-08-17T21:00:19.125Z,20.05
2022-08-17T21:02:49.562Z,20.08
2022-08-17T21:05:37.313Z,20.08
2022-08-17T21:08:17.044Z,20.00
2022-08-17T21:10:45.544Z,20.06
2022-08-17T21:13:15.600Z,20.07
2022-08-17T21:15:42.366Z,20.12
2022-08-17T21:18:18.922Z,20.10
2022-08-17T21:21:14.084Z,19.95
2022-08-17T21:24:02.072Z,19.86
2022-08-17T21:27:05.998Z,19.86
2022-08-17T21:29:33.947Z,19.73
2022-08-17T21:32:06.927Z,19.70
2022-08-17T21:34:44.022Z,19.72
2022-08-17T21:37:23.360Z,19.68
2022-08-17T21:40:13.166Z,19.61
2022-08-17T21:42:47.749Z,19.60
2022-08-17T21:45:28.934Z,19.39
2022-08-17T21:48:11.555Z,19.32
2022-08-17T21:50:41.518Z,19.32
2022-08-17T21:53:12.165Z,19.26
2022-08-17T21:55:39.100Z,19.29
2022-08-17T21:58:27.040Z,19.28
2022-08-17T22:01:21.013Z,19.28
2022-08-17T22:03:56.550Z,19.37
2022-08-17T22:06:29.874Z,19.30
2022-08-17T22:09:10.603Z,19.25
2022-08-17T22:11:54.647Z,19.14
2022-08-17T22:14:51.613Z,19.05
2022-08-17T22:17:26.376Z,18.99
2022-08-17T22:20:01.538Z,18.94
2022-08-17T22:22:30.810Z,18.84
2022-08-17T22:25:06.769Z,18.87
2022-08-17T22:27:48.943Z,18.74
2022-08-17T22:30:25.165Z,18.63
2022-08-17T22:32:52.061Z,18.48
2022-08-17T22:35:18.515Z,18.50
2022-08-17T22:37:45.579Z,18.63
2022-08-17T22:40:25.294Z,18.53
2022-08-17T22:42:52.439Z,18.44
2022-08-17T22:45:19.254Z,18.37
2022-08-17T22:47:48.873Z,18.30
2022-08-17T22:50:27.863Z,18.34
2022-08-17T22:53:18.998Z,18.38
2022-08-17T22:56:10.071Z,18.42
2022-08-17T22:59:07.545Z,18.28
2022-08-17T23:01:35.467Z,18.28
2022-08-17T23:04:04.157Z,18.22
2022-08-17T23:06:35.176Z,18.18
2022-08-17T23:09:04.391Z,18.14
2022-08-17T23:11:47.764Z,18.29
2022-08-17T23:14:19.258Z,18.20
2022-08-17T23:16:46.757Z,18.20
2022-08-17T23:19:16.645Z,18.12
2022-08-17T23:21:44.898Z,18.11
2022-08-17T23:24:17.329Z,17.99
2022-08-17T23:26:43.900Z,17.98
2022-08-17T23:29:10.675Z,17.89
2022-08-17T23:31:39.051Z,17.86
2022-08-17T23:34:09.331Z,17.82
2022-08-17T23:36:36.379Z,17.90
2022-08-17T23:39:04.599Z,17.92
2022-08-17T23:41:36.366Z,17.95
2022-08-17T23:44:04.925Z,17.95
2022-08-17T23:46:31.427Z,17.83
2022-08-17T23:48:58.111Z,17.88
2022-08-17T23:51:29.096Z,17.98
2022-08-17T23:54:05.779Z,17.81
2022-08-17T23:56:41.109Z,17.77
2022-08-17T23:59:07.618Z,17.75
